sensor_id;sensor_type;location;lat;lon;timestamp;pressure;altitude;pressure_sealevel;temperature
73734;BMP280;62039;50.000;9.064;2023-09-07T00:01:01;100732.47;;;18.97
73734;BMP280;62039;50.000;9.064;2023-09-07T00:03:28;100729.22;;;18.95
73734;BMP280;62039;50.000;9.064;2023-09-07T00:05:55;100727.19;;;18.91
73734;BMP280;62039;50.000;9.064;2023-09-07T00:08:22;100733.66;;;18.88
73734;BMP280;62039;50.000;9.064;2023-09-07T00:10:49;100735.91;;;18.85
73734;BMP280;62039;50.000;9.064;2023-09-07T00:13:16;100733.66;;;18.81
73734;BMP280;62039;50.000;9.064;2023-09-07T00:15:45;100738.16;;;18.81
73734;BMP280;62039;50.000;9.064;2023-09-07T00:18:12;100735.31;;;18.76
73734;BMP280;62039;50.000;9.064;2023-09-07T00:20:39;100737.34;;;18.74
73734;BMP280;62039;50.000;9.064;2023-09-07T00:23:06;100730.84;;;18.70
73734;BMP280;62039;50.000;9.064;2023-09-07T00:25:33;100733.09;;;18.66
73734;BMP280;62039;50.000;9.064;2023-09-07T00:28:00;100731.66;;;18.64
73734;BMP280;62039;50.000;9.064;2023-09-07T00:30:27;100730.22;;;18.61
73734;BMP280;62039;50.000;9.064;2023-09-07T00:32:57;100716.59;;;18.58
73734;BMP280;62039;50.000;9.064;2023-09-07T00:35:24;100726.75;;;18.54
73734;BMP280;62039;50.000;9.064;2023-09-07T00:37:51;100726.34;;;18.51
73734;BMP280;62039;50.000;9.064;2023-09-07T00:40:18;100732.84;;;18.48
73734;BMP280;62039;50.000;9.064;2023-09-07T00:42:45;100726.34;;;18.44
73734;BMP280;62039;50.000;9.064;2023-09-07T00:45:12;100733.66;;;18.42
73734;BMP280;62039;50.000;9.064;2023-09-07T00:47:39;100722.69;;;18.38
73734;BMP280;62039;50.000;9.064;2023-09-07T00:50:09;100723.91;;;18.36
73734;BMP280;62039;50.000;9.064;2023-09-07T00:52:37;100713.75;;;18.33
73734;BMP280;62039;50.000;9.064;2023-09-07T00:55:05;100709.66;;;18.30
73734;BMP280;62039;50.000;9.064;2023-09-07T00:57:32;100712.69;;;18.27
73734;BMP280;62039;50.000;9.064;2023-09-07T01:00:00;100710.47;;;18.24
73734;BMP280;62039;50.000;9.064;2023-09-07T01:02:27;100711.63;;;18.22
73734;BMP280;62039;50.000;9.064;2023-09-07T01:04:54;100715.28;;;18.21
73734;BMP280;62039;50.000;9.064;2023-09-07T01:07:25;100720.81;;;18.19
73734;BMP280;62039;50.000;9.064;2023-09-07T01:09:57;100721.00;;;18.18
73734;BMP280;62039;50.000;9.064;2023-09-07T01:12:26;100720.38;;;18.16
73734;BMP280;62039;50.000;9.064;2023-09-07T01:14:53;100720.56;;;18.14
73734;BMP280;62039;50.000;9.064;2023-09-07T01:17:21;100716.28;;;18.13
73734;BMP280;62039;50.000;9.064;2023-09-07T01:19:49;100711.22;;;18.12
73734;BMP280;62039;50.000;9.064;2023-09-07T01:22:19;100702.47;;;18.11
73734;BMP280;62039;50.000;9.064;2023-09-07T01:24:47;100706.13;;;18.10
73734;BMP280;62039;50.000;9.064;2023-09-07T01:27:14;100696.56;;;18.09
73734;BMP280;62039;50.000;9.064;2023-09-07T01:29:41;100691.47;;;18.08
73734;BMP280;62039;50.000;9.064;2023-09-07T01:32:08;100695.94;;;18.07
73734;BMP280;62039;50.000;9.064;2023-09-07T01:34:35;100691.72;;;18.06
73734;BMP280;62039;50.000;9.064;2023-09-07T01:37:04;100695.34;;;18.05
73734;BMP280;62039;50.000;9.064;2023-09-07T01:39:34;100682.34;;;18.03
73734;BMP280;62039;50.000;9.064;2023-09-07T01:42:01;100686.81;;;18.03
73734;BMP280;62039;50.000;9.064;2023-09-07T01:44:27;100692.28;;;18.01
73734;BMP280;62039;50.000;9.064;2023-09-07T01:46:54;100685.38;;;18.00
73734;BMP280;62039;50.000;9.064;2023-09-07T01:49:22;100681.13;;;17.99
73734;BMP280;62039;50.000;9.064;2023-09-07T01:51:51;100696.16;;;17.99
73734;BMP280;62039;50.000;9.064;2023-09-07T01:54:18;100687.59;;;17.97
73734;BMP280;62039;50.000;9.064;2023-09-07T01:56:47;100692.06;;;17.96
73734;BMP280;62039;50.000;9.064;2023-09-07T01:59:14;100690.63;;;17.94
73734;BMP280;62039;50.000;9.064;2023-09-07T02:01:42;100690.03;;;17.92
73734;BMP280;62039;50.000;9.064;2023-09-07T02:04:09;100693.69;;;17.91
73734;BMP280;62039;50.000;9.064;2023-09-07T02:06:36;100693.06;;;17.89
73734;BMP280;62039;50.000;9.064;2023-09-07T02:09:03;100687.16;;;17.87
73734;BMP280;62039;50.000;9.064;2023-09-07T02:11:30;100685.75;;;17.84
73734;BMP280;62039;50.000;9.064;2023-09-07T02:13:59;100688.97;;;17.80
73734;BMP280;62039;50.000;9.064;2023-09-07T02:16:26;100692.41;;;17.74
73734;BMP280;62039;50.000;9.064;2023-09-07T02:19:01;100701.94;;;17.68
73734;BMP280;62039;50.000;9.064;2023-09-07T02:21:28;100694.00;;;17.61
73734;BMP280;62039;50.000;9.064;2023-09-07T02:23:55;100707.78;;;17.57
73734;BMP280;62039;50.000;9.064;2023-09-07T02:26:22;100706.53;;;17.53
73734;BMP280;62039;50.000;9.064;2023-09-07T02:28:49;100699.19;;;17.48
73734;BMP280;62039;50.000;9.064;2023-09-07T02:31:18;100693.50;;;17.45
73734;BMP280;62039;50.000;9.064;2023-09-07T02:33:45;100699.16;;;17.42
73734;BMP280;62039;50.000;9.064;2023-09-07T02:36:12;100700.34;;;17.39
73734;BMP280;62039;50.000;9.064;2023-09-07T02:38:39;100696.31;;;17.37
73734;BMP280;62039;50.000;9.064;2023-09-07T02:41:06;100696.50;;;17.35
73734;BMP280;62039;50.000;9.064;2023-09-07T02:43:33;100696.69;;;17.34
73734;BMP280;62039;50.000;9.064;2023-09-07T02:46:00;100690.59;;;17.33
73734;BMP280;62039;50.000;9.064;2023-09-07T02:48:30;100704.00;;;17.32
73734;BMP280;62039;50.000;9.064;2023-09-07T02:50:57;100697.28;;;17.29
73734;BMP280;62039;50.000;9.064;2023-09-07T02:53:24;100695.66;;;17.28
73734;BMP280;62039;50.000;9.064;2023-09-07T02:55:51;100693.19;;;17.26
73734;BMP280;62039;50.000;9.064;2023-09-07T02:58:18;100692.38;;;17.26
73734;BMP280;62039;50.000;9.064;2023-09-07T03:00:46;100693.41;;;17.25
73734;BMP280;62039;50.000;9.064;2023-09-07T03:03:13;100695.41;;;17.23
73734;BMP280;62039;50.000;9.064;2023-09-07T03:05:43;100691.16;;;17.22
73734;BMP280;62039;50.000;9.064;2023-09-07T03:08:10;100693.38;;;17.18
73734;BMP280;62039;50.000;9.064;2023-09-07T03:10:38;100697.22;;;17.16
73734;BMP280;62039;50.000;9.064;2023-09-07T03:13:05;100696.56;;;17.14
73734;BMP280;62039;50.000;9.064;2023-09-07T03:15:32;100695.34;;;17.10
73734;BMP280;62039;50.000;9.064;2023-09-07T03:17:59;100695.72;;;17.07
73734;BMP280;62039;50.000;9.064;2023-09-07T03:20:26;100695.13;;;17.05
73734;BMP280;62039;50.000;9.064;2023-09-07T03:22:55;100693.69;;;17.02
73734;BMP280;62039;50.000;9.064;2023-09-07T03:25:22;100701.97;;;16.99
73734;BMP280;62039;50.000;9.064;2023-09-07T03:27:49;100696.09;;;16.97
73734;BMP280;62039;50.000;9.064;2023-09-07T03:30:17;100699.91;;;16.95
73734;BMP280;62039;50.000;9.064;2023-09-07T03:32:44;100709.84;;;16.93
73734;BMP280;62039;50.000;9.064;2023-09-07T03:35:11;100711.06;;;16.90
73734;BMP280;62039;50.000;9.064;2023-09-07T03:37:38;100708.56;;;16.88
73734;BMP280;62039;50.000;9.064;2023-09-07T03:40:08;100705.31;;;16.86
73734;BMP280;62039;50.000;9.064;2023-09-07T03:42:35;100703.06;;;16.83
73734;BMP280;62039;50.000;9.064;2023-09-07T03:45:03;100704.25;;;16.81
73734;BMP280;62039;50.000;9.064;2023-09-07T03:47:30;100702.81;;;16.78
73734;BMP280;62039;50.000;9.064;2023-09-07T03:49:57;100704.84;;;16.76
73734;BMP280;62039;50.000;9.064;2023-09-07T03:52:24;100704.19;;;16.74
73734;BMP280;62039;50.000;9.064;2023-09-07T03:54:53;100701.97;;;16.71
73734;BMP280;62039;50.000;9.064;2023-09-07T03:57:23;100714.53;;;16.69
73734;BMP280;62039;50.000;9.064;2023-09-07T03:59:50;100713.88;;;16.67
73734;BMP280;62039;50.000;9.064;2023-09-07T04:02:17;100713.25;;;16.65
73734;BMP280;62039;50.000;9.064;2023-09-07T04:04:48;100710.84;;;16.64
73734;BMP280;62039;50.000;9.064;2023-09-07T04:07:15;100711.00;;;16.62
73734;BMP280;62039;50.000;9.064;2023-09-07T04:09:42;100714.00;;;16.59
73734;BMP280;62039;50.000;9.064;2023-09-07T04:12:10;100710.78;;;16.57
73734;BMP280;62039;50.000;9.064;2023-09-07T04:14:40;100709.13;;;16.56
73734;BMP280;62039;50.000;9.064;2023-09-07T04:17:07;100712.97;;;16.54
73734;BMP280;62039;50.000;9.064;2023-09-07T04:19:34;100708.50;;;16.54
73734;BMP280;62039;50.000;9.064;2023-09-07T04:22:01;100717.59;;;16.52
73734;BMP280;62039;50.000;9.064;2023-09-07T04:24:28;100716.81;;;16.51
73734;BMP280;62039;50.000;9.064;2023-09-07T04:26:58;100714.19;;;16.51
73734;BMP280;62039;50.000;9.064;2023-09-07T04:29:25;100710.91;;;16.49
73734;BMP280;62039;50.000;9.064;2023-09-07T04:31:55;100713.34;;;16.51
73734;BMP280;62039;50.000;9.064;2023-09-07T04:34:22;100713.53;;;16.49
73734;BMP280;62039;50.000;9.064;2023-09-07T04:36:49;100713.53;;;16.49
73734;BMP280;62039;50.000;9.064;2023-09-07T04:39:16;100716.19;;;16.49
73734;BMP280;62039;50.000;9.064;2023-09-07T04:41:43;100718.81;;;16.49
73734;BMP280;62039;50.000;9.064;2023-09-07T04:44:10;100728.38;;;16.50
73734;BMP280;62039;50.000;9.064;2023-09-07T04:46:37;100723.91;;;16.51
73734;BMP280;62039;50.000;9.064;2023-09-07T04:49:07;100727.34;;;16.51
73734;BMP280;62039;50.000;9.064;2023-09-07T04:51:34;100722.88;;;16.52
73734;BMP280;62039;50.000;9.064;2023-09-07T04:54:01;100732.63;;;16.51
73734;BMP280;62039;50.000;9.064;2023-09-07T04:56:28;100728.97;;;16.52
73734;BMP280;62039;50.000;9.064;2023-09-07T04:58:55;100726.31;;;16.52
73734;BMP280;62039;50.000;9.064;2023-09-07T05:01:22;100733.25;;;16.53
73734;BMP280;62039;50.000;9.064;2023-09-07T05:03:49;100725.31;;;16.53
73734;BMP280;62039;50.000;9.064;2023-09-07T05:06:19;100730.59;;;16.53
73734;BMP280;62039;50.000;9.064;2023-09-07T05:08:46;100732.25;;;16.54
73734;BMP280;62039;50.000;9.064;2023-09-07T05:11:13;100731.41;;;16.54
73734;BMP280;62039;50.000;9.064;2023-09-07T05:13:40;100740.16;;;16.54
73734;BMP280;62039;50.000;9.064;2023-09-07T05:16:06;100738.34;;;16.55
73734;BMP280;62039;50.000;9.064;2023-09-07T05:18:33;100740.78;;;16.56
73734;BMP280;62039;50.000;9.064;2023-09-07T05:21:01;100739.78;;;16.57
73734;BMP280;62039;50.000;9.064;2023-09-07T05:23:30;100743.84;;;16.60
73734;BMP280;62039;50.000;9.064;2023-09-07T05:25:57;100742.84;;;16.61
73734;BMP280;62039;50.000;9.064;2023-09-07T05:28:24;100740.03;;;16.62
73734;BMP280;62039;50.000;9.064;2023-09-07T05:30:51;100745.94;;;16.64
73734;BMP280;62039;50.000;9.064;2023-09-07T05:33:18;100748.19;;;16.67
73734;BMP280;62039;50.000;9.064;2023-09-07T05:35:45;100747.81;;;16.70
73734;BMP280;62039;50.000;9.064;2023-09-07T05:38:13;100754.31;;;16.74
73734;BMP280;62039;50.000;9.064;2023-09-07T05:40:43;100755.56;;;16.78
73734;BMP280;62039;50.000;9.064;2023-09-07T05:43:11;100750.91;;;16.80
73734;BMP280;62039;50.000;9.064;2023-09-07T05:45:39;100760.09;;;16.84
73734;BMP280;62039;50.000;9.064;2023-09-07T05:48:07;100763.00;;;16.90
73734;BMP280;62039;50.000;9.064;2023-09-07T05:50:36;100770.34;;;16.94
73734;BMP280;62039;50.000;9.064;2023-09-07T05:53:04;100767.13;;;16.99
73734;BMP280;62039;50.000;9.064;2023-09-07T05:55:31;100769.03;;;17.05
73734;BMP280;62039;50.000;9.064;2023-09-07T05:58:04;100770.47;;;17.14
73734;BMP280;62039;50.000;9.064;2023-09-07T06:00:32;100770.53;;;17.20
73734;BMP280;62039;50.000;9.064;2023-09-07T06:02:59;100768.56;;;17.29
73734;BMP280;62039;50.000;9.064;2023-09-07T06:05:26;100764.16;;;17.36
73734;BMP280;62039;50.000;9.064;2023-09-07T06:07:53;100757.72;;;17.45
73734;BMP280;62039;50.000;9.064;2023-09-07T06:10:20;100754.88;;;17.53
73734;BMP280;62039;50.000;9.064;2023-09-07T06:12:47;100752.75;;;17.63
73734;BMP280;62039;50.000;9.064;2023-09-07T06:15:16;100755.00;;;17.73
73734;BMP280;62039;50.000;9.064;2023-09-07T06:17:43;100742.44;;;17.82
73734;BMP280;62039;50.000;9.064;2023-09-07T06:20:11;100743.72;;;17.92
73734;BMP280;62039;50.000;9.064;2023-09-07T06:22:38;100745.78;;;18.03
73734;BMP280;62039;50.000;9.064;2023-09-07T06:25:05;100747.81;;;18.15
73734;BMP280;62039;50.000;9.064;2023-09-07T06:27:32;100744.66;;;18.26
73734;BMP280;62039;50.000;9.064;2023-09-07T06:29:59;100749.34;;;18.37
73734;BMP280;62039;50.000;9.064;2023-09-07T06:32:28;100746.69;;;18.50
73734;BMP280;62039;50.000;9.064;2023-09-07T06:34:55;100754.66;;;18.63
73734;BMP280;62039;50.000;9.064;2023-09-07T06:37:23;100752.81;;;18.77
73734;BMP280;62039;50.000;9.064;2023-09-07T06:39:50;100749.19;;;18.91
73734;BMP280;62039;50.000;9.064;2023-09-07T06:42:17;100750.78;;;19.05
73734;BMP280;62039;50.000;9.064;2023-09-07T06:44:44;100757.91;;;19.18
73734;BMP280;62039;50.000;9.064;2023-09-07T06:47:11;100752.56;;;19.31
73734;BMP280;62039;50.000;9.064;2023-09-07T06:49:40;100748.66;;;19.47
73734;BMP280;62039;50.000;9.064;2023-09-07T06:52:07;100749.69;;;19.59
73734;BMP280;62039;50.000;9.064;2023-09-07T06:54:34;100749.41;;;19.74
73734;BMP280;62039;50.000;9.064;2023-09-07T06:57:01;100748.09;;;19.89
73734;BMP280;62039;50.000;9.064;2023-09-07T06:59:28;100755.56;;;20.06
73734;BMP280;62039;50.000;9.064;2023-09-07T07:01:55;100750.84;;;20.21
73734;BMP280;62039;50.000;9.064;2023-09-07T07:04:23;100750.31;;;20.37
73734;BMP280;62039;50.000;9.064;2023-09-07T07:06:52;100753.47;;;20.52
73734;BMP280;62039;50.000;9.064;2023-09-07T07:09:19;100757.44;;;20.68
73734;BMP280;62039;50.000;9.064;2023-09-07T07:11:46;100748.38;;;20.82
73734;BMP280;62039;50.000;9.064;2023-09-07T07:14:13;100749.63;;;20.98
73734;BMP280;62039;50.000;9.064;2023-09-07T07:16:40;100760.72;;;21.13
73734;BMP280;62039;50.000;9.064;2023-09-07T07:19:07;100754.84;;;21.29
73734;BMP280;62039;50.000;9.064;2023-09-07T07:21:34;100750.00;;;21.44
73734;BMP280;62039;50.000;9.064;2023-09-07T07:24:04;100759.00;;;21.62
73734;BMP280;62039;50.000;9.064;2023-09-07T07:26:31;100754.13;;;21.77
73734;BMP280;62039;50.000;9.064;2023-09-07T07:28:58;100750.84;;;21.93
73734;BMP280;62039;50.000;9.064;2023-09-07T07:31:25;100759.03;;;22.10
73734;BMP280;62039;50.000;9.064;2023-09-07T07:33:52;100747.50;;;22.27
73734;BMP280;62039;50.000;9.064;2023-09-07T07:36:19;100752.19;;;22.44
73734;BMP280;62039;50.000;9.064;2023-09-07T07:38:46;100757.66;;;22.60
73734;BMP280;62039;50.000;9.064;2023-09-07T07:41:16;100748.75;;;22.78
73734;BMP280;62039;50.000;9.064;2023-09-07T07:43:43;100755.03;;;22.95
73734;BMP280;62039;50.000;9.064;2023-09-07T07:46:10;100747.97;;;23.13
73734;BMP280;62039;50.000;9.064;2023-09-07T07:48:37;100751.56;;;23.30
73734;BMP280;62039;50.000;9.064;2023-09-07T07:51:04;100755.31;;;23.45
73734;BMP280;62039;50.000;9.064;2023-09-07T07:53:34;100759.72;;;23.63
73734;BMP280;62039;50.000;9.064;2023-09-07T07:56:01;100752.81;;;23.79
73734;BMP280;62039;50.000;9.064;2023-09-07T07:58:31;100745.69;;;23.96
73734;BMP280;62039;50.000;9.064;2023-09-07T08:00:57;100753.16;;;24.11
73734;BMP280;62039;50.000;9.064;2023-09-07T08:03:24;100750.00;;;24.25
73734;BMP280;62039;50.000;9.064;2023-09-07T08:05:52;100738.19;;;24.38
73734;BMP280;62039;50.000;9.064;2023-09-07T08:08:19;100739.47;;;24.52
73734;BMP280;62039;50.000;9.064;2023-09-07T08:10:46;100732.72;;;24.66
73734;BMP280;62039;50.000;9.064;2023-09-07T08:13:13;100729.78;;;24.80
73734;BMP280;62039;50.000;9.064;2023-09-07T08:15:42;100731.84;;;24.94
73734;BMP280;62039;50.000;9.064;2023-09-07T08:18:09;100735.47;;;25.05
73734;BMP280;62039;50.000;9.064;2023-09-07T08:20:37;100726.53;;;25.16
73734;BMP280;62039;50.000;9.064;2023-09-07T08:23:04;100725.63;;;25.27
73734;BMP280;62039;50.000;9.064;2023-09-07T08:25:31;100728.44;;;25.37
73734;BMP280;62039;50.000;9.064;2023-09-07T08:27:58;100716.25;;;25.47
73734;BMP280;62039;50.000;9.064;2023-09-07T08:30:25;100723.31;;;25.58
73734;BMP280;62039;50.000;9.064;2023-09-07T08:32:55;100727.72;;;25.69
73734;BMP280;62039;50.000;9.064;2023-09-07T08:35:22;100714.50;;;25.79
73734;BMP280;62039;50.000;9.064;2023-09-07T08:37:49;100721.78;;;25.89
73734;BMP280;62039;50.000;9.064;2023-09-07T08:40:16;100726.44;;;25.98
73734;BMP280;62039;50.000;9.064;2023-09-07T08:42:43;100721.16;;;26.08
73734;BMP280;62039;50.000;9.064;2023-09-07T08:45:13;100721.84;;;26.20
73734;BMP280;62039;50.000;9.064;2023-09-07T08:47:41;100718.44;;;26.30
73734;BMP280;62039;50.000;9.064;2023-09-07T08:50:13;100724.44;;;26.42
73734;BMP280;62039;50.000;9.064;2023-09-07T08:52:41;100721.53;;;26.49
73734;BMP280;62039;50.000;9.064;2023-09-07T08:55:10;100729.41;;;26.61
73734;BMP280;62039;50.000;9.064;2023-09-07T08:57:37;100727.03;;;26.69
73734;BMP280;62039;50.000;9.064;2023-09-07T09:00:05;100725.00;;;26.81
73734;BMP280;62039;50.000;9.064;2023-09-07T09:02:32;100724.50;;;26.89
73734;BMP280;62039;50.000;9.064;2023-09-07T09:05:00;100728.88;;;27.01
73734;BMP280;62039;50.000;9.064;2023-09-07T09:07:29;100733.19;;;27.12
73734;BMP280;62039;50.000;9.064;2023-09-07T09:10:03;100734.88;;;27.23
73734;BMP280;62039;50.000;9.064;2023-09-07T09:12:30;100733.88;;;27.34
73734;BMP280;62039;50.000;9.064;2023-09-07T09:14:58;100736.06;;;27.47
73734;BMP280;62039;50.000;9.064;2023-09-07T09:17:25;100732.06;;;27.60
73734;BMP280;62039;50.000;9.064;2023-09-07T09:19:52;100720.06;;;27.72
73734;BMP280;62039;50.000;9.064;2023-09-07T09:22:19;100717.41;;;27.88
73734;BMP280;62039;50.000;9.064;2023-09-07T09:24:50;100720.63;;;28.00
73734;BMP280;62039;50.000;9.064;2023-09-07T09:27:17;100721.19;;;28.12
73734;BMP280;62039;50.000;9.064;2023-09-07T09:29:44;100719.34;;;28.23
73734;BMP280;62039;50.000;9.064;2023-09-07T09:32:13;100717.44;;;28.33
73734;BMP280;62039;50.000;9.064;2023-09-07T09:34:43;100709.09;;;28.45
73734;BMP280;62039;50.000;9.064;2023-09-07T09:37:13;100710.16;;;28.54
73734;BMP280;62039;50.000;9.064;2023-09-07T09:39:43;100707.75;;;28.63
73734;BMP280;62039;50.000;9.064;2023-09-07T09:42:14;100706.13;;;28.72
73734;BMP280;62039;50.000;9.064;2023-09-07T09:44:43;100702.34;;;28.83
73734;BMP280;62039;50.000;9.064;2023-09-07T09:47:12;100696.94;;;28.93
73734;BMP280;62039;50.000;9.064;2023-09-07T09:49:41;100696.91;;;29.03
73734;BMP280;62039;50.000;9.064;2023-09-07T09:52:08;100694.72;;;29.15
73734;BMP280;62039;50.000;9.064;2023-09-07T09:54:35;100697.91;;;29.27
73734;BMP280;62039;50.000;9.064;2023-09-07T09:57:03;100692.47;;;29.38
73734;BMP280;62039;50.000;9.064;2023-09-07T09:59:32;100692.94;;;29.50
73734;BMP280;62039;50.000;9.064;2023-09-07T10:02:00;100682.41;;;29.58
73734;BMP280;62039;50.000;9.064;2023-09-07T10:04:28;100681.53;;;29.68
73734;BMP280;62039;50.000;9.064;2023-09-07T10:06:57;100678.78;;;29.78
73734;BMP280;62039;50.000;9.064;2023-09-07T10:09:29;100668.22;;;29.87
73734;BMP280;62039;50.000;9.064;2023-09-07T10:11:57;100669.50;;;29.94
73734;BMP280;62039;50.000;9.064;2023-09-07T10:14:24;100660.56;;;29.99
73734;BMP280;62039;50.000;9.064;2023-09-07T10:16:54;100658.09;;;30.08
73734;BMP280;62039;50.000;9.064;2023-09-07T10:19:22;100656.47;;;30.12
73734;BMP280;62039;50.000;9.064;2023-09-07T10:21:53;100661.78;;;30.17
73734;BMP280;62039;50.000;9.064;2023-09-07T10:24:24;100660.66;;;30.23
73734;BMP280;62039;50.000;9.064;2023-09-07T10:27:01;100657.09;;;30.27
73734;BMP280;62039;50.000;9.064;2023-09-07T10:29:29;100651.97;;;30.31
73734;BMP280;62039;50.000;9.064;2023-09-07T10:32:05;100647.03;;;30.38
73734;BMP280;62039;50.000;9.064;2023-09-07T10:34:35;100644.50;;;30.46
73734;BMP280;62039;50.000;9.064;2023-09-07T10:37:02;100641.00;;;30.51
73734;BMP280;62039;50.000;9.064;2023-09-07T10:39:31;100650.63;;;30.57
73734;BMP280;62039;50.000;9.064;2023-09-07T10:41:58;100641.41;;;30.63
73734;BMP280;62039;50.000;9.064;2023-09-07T10:44:25;100639.97;;;30.71
73734;BMP280;62039;50.000;9.064;2023-09-07T10:46:52;100649.59;;;30.77
73734;BMP280;62039;50.000;9.064;2023-09-07T10:49:23;100635.25;;;30.81
73734;BMP280;62039;50.000;9.064;2023-09-07T10:51:50;100638.66;;;30.87
73734;BMP280;62039;50.000;9.064;2023-09-07T10:54:18;100654.53;;;30.94
73734;BMP280;62039;50.000;9.064;2023-09-07T10:56:46;100636.69;;;30.98
73734;BMP280;62039;50.000;9.064;2023-09-07T10:59:13;100627.44;;;31.04
73734;BMP280;62039;50.000;9.064;2023-09-07T11:01:40;100623.06;;;31.08
73734;BMP280;62039;50.000;9.064;2023-09-07T11:04:07;100622.50;;;31.11
73734;BMP280;62039;50.000;9.064;2023-09-07T11:06:39;100623.00;;;31.13
73734;BMP280;62039;50.000;9.064;2023-09-07T11:09:06;100625.91;;;31.16
73734;BMP280;62039;50.000;9.064;2023-09-07T11:11:34;100623.72;;;31.18
73734;BMP280;62039;50.000;9.064;2023-09-07T11:14:02;100622.34;;;31.21
73734;BMP280;62039;50.000;9.064;2023-09-07T11:16:29;100616.38;;;31.24
73734;BMP280;62039;50.000;9.064;2023-09-07T11:18:56;100621.16;;;31.27
73734;BMP280;62039;50.000;9.064;2023-09-07T11:21:23;100609.00;;;31.30
73734;BMP280;62039;50.000;9.064;2023-09-07T11:23:53;100605.41;;;31.34
73734;BMP280;62039;50.000;9.064;2023-09-07T11:26:20;100606.47;;;31.38
73734;BMP280;62039;50.000;9.064;2023-09-07T11:28:47;100615.81;;;31.46
73734;BMP280;62039;50.000;9.064;2023-09-07T11:31:18;100602.50;;;31.49
73734;BMP280;62039;50.000;9.064;2023-09-07T11:33:46;100607.81;;;31.54
73734;BMP280;62039;50.000;9.064;2023-09-07T11:36:13;100596.16;;;31.59
73734;BMP280;62039;50.000;9.064;2023-09-07T11:38:43;100592.56;;;31.64
73734;BMP280;62039;50.000;9.064;2023-09-07T11:41:13;100598.38;;;31.71
73734;BMP280;62039;50.000;9.064;2023-09-07T11:43:40;100587.78;;;31.74
73734;BMP280;62039;50.000;9.064;2023-09-07T11:46:07;100592.59;;;31.77
73734;BMP280;62039;50.000;9.064;2023-09-07T11:48:38;100590.13;;;31.81
73734;BMP280;62039;50.000;9.064;2023-09-07T11:51:05;100584.94;;;31.84
73734;BMP280;62039;50.000;9.064;2023-09-07T11:53:32;100588.66;;;31.88
73734;BMP280;62039;50.000;9.064;2023-09-07T11:55:59;100592.38;;;31.92
73734;BMP280;62039;50.000;9.064;2023-09-07T11:58:29;100593.88;;;31.98
73734;BMP280;62039;50.000;9.064;2023-09-07T12:00:56;100596.28;;;32.00
73734;BMP280;62039;50.000;9.064;2023-09-07T12:03:23;100584.06;;;32.03
73734;BMP280;62039;50.000;9.064;2023-09-07T12:05:50;100588.09;;;32.05
73734;BMP280;62039;50.000;9.064;2023-09-07T12:08:17;100596.38;;;32.09
73734;BMP280;62039;50.000;9.064;2023-09-07T12:10:44;100578.78;;;32.11
73734;BMP280;62039;50.000;9.064;2023-09-07T12:13:11;100579.28;;;32.13
73734;BMP280;62039;50.000;9.064;2023-09-07T12:15:41;100579.78;;;32.15
73734;BMP280;62039;50.000;9.064;2023-09-07T12:18:08;100584.88;;;32.17
73734;BMP280;62039;50.000;9.064;2023-09-07T12:20:35;100573.78;;;32.18
73734;BMP280;62039;50.000;9.064;2023-09-07T12:23:02;100574.28;;;32.20
73734;BMP280;62039;50.000;9.064;2023-09-07T12:25:29;100582.09;;;32.22
73734;BMP280;62039;50.000;9.064;2023-09-07T12:27:56;100561.28;;;32.22
73734;BMP280;62039;50.000;9.064;2023-09-07T12:30:23;100571.22;;;32.27
73734;BMP280;62039;50.000;9.064;2023-09-07T12:32:53;100570.81;;;32.33
73734;BMP280;62039;50.000;9.064;2023-09-07T12:35:21;100564.50;;;32.38
73734;BMP280;62039;50.000;9.064;2023-09-07T12:37:48;100557.72;;;32.41
73734;BMP280;62039;50.000;9.064;2023-09-07T12:40:15;100560.09;;;32.42
73734;BMP280;62039;50.000;9.064;2023-09-07T12:42:44;100557.09;;;32.44
73734;BMP280;62039;50.000;9.064;2023-09-07T12:45:12;100557.09;;;32.44
73734;BMP280;62039;50.000;9.064;2023-09-07T12:47:39;100554.38;;;32.44
73734;BMP280;62039;50.000;9.064;2023-09-07T12:50:09;100553.28;;;32.45
73734;BMP280;62039;50.000;9.064;2023-09-07T12:52:36;100559.50;;;32.45
73734;BMP280;62039;50.000;9.064;2023-09-07T12:55:04;100548.06;;;32.48
73734;BMP280;62039;50.000;9.064;2023-09-07T12:57:31;100546.97;;;32.49
73734;BMP280;62039;50.000;9.064;2023-09-07T12:59:58;100543.97;;;32.51
73734;BMP280;62039;50.000;9.064;2023-09-07T13:02:25;100537.97;;;32.54
73734;BMP280;62039;50.000;9.064;2023-09-07T13:04:53;100540.84;;;32.57
73734;BMP280;62039;50.000;9.064;2023-09-07T13:07:23;100540.56;;;32.59
73734;BMP280;62039;50.000;9.064;2023-09-07T13:09:50;100541.66;;;32.58
73734;BMP280;62039;50.000;9.064;2023-09-07T13:12:17;100545.16;;;32.58
73734;BMP280;62039;50.000;9.064;2023-09-07T13:14:44;100546.25;;;32.57
73734;BMP280;62039;50.000;9.064;2023-09-07T13:17:12;100540.84;;;32.57
73734;BMP280;62039;50.000;9.064;2023-09-07T13:19:39;100540.34;;;32.55
73734;BMP280;62039;50.000;9.064;2023-09-07T13:22:06;100538.78;;;32.54
73734;BMP280;62039;50.000;9.064;2023-09-07T13:24:36;100543.38;;;32.54
73734;BMP280;62039;50.000;9.064;2023-09-07T13:27:03;100532.88;;;32.52
73734;BMP280;62039;50.000;9.064;2023-09-07T13:29:31;100533.16;;;32.51
73734;BMP280;62039;50.000;9.064;2023-09-07T13:31:58;100525.06;;;32.51
73734;BMP280;62039;50.000;9.064;2023-09-07T13:34:25;100526.16;;;32.50
73734;BMP280;62039;50.000;9.064;2023-09-07T13:36:52;100526.94;;;32.50
73734;BMP280;62039;50.000;9.064;2023-09-07T13:39:19;100520.44;;;32.51
73734;BMP280;62039;50.000;9.064;2023-09-07T13:41:49;100525.06;;;32.51
73734;BMP280;62039;50.000;9.064;2023-09-07T13:44:16;100528.38;;;32.48
73734;BMP280;62039;50.000;9.064;2023-09-07T13:46:44;100521.16;;;32.43
73734;BMP280;62039;50.000;9.064;2023-09-07T13:49:11;100516.16;;;32.36
73734;BMP280;62039;50.000;9.064;2023-09-07T13:51:40;100505.47;;;32.31
73734;BMP280;62039;50.000;9.064;2023-09-07T13:54:08;100509.09;;;32.27
73734;BMP280;62039;50.000;9.064;2023-09-07T13:56:35;100512.38;;;32.24
73734;BMP280;62039;50.000;9.064;2023-09-07T13:59:05;100507.84;;;32.19